首页
METAR-TAF:

METAR-TAF

机场 :

杜塞尔多夫机场

杜塞尔多夫, 德国

纬度: 51-18N, 经度: 006-46E, 海拔: 45米

当前天气观测

该预报发布于29分钟前的22:20 UTC
风速9节,风向
温度 21°C
湿度 69%
气压 1025 hPa
能见度10公里或以上
1500米以下无云,无积雨云

METAR: EDDL 262220Z 01009KT CAVOK 21/15 Q1025 NOSIG

时间: 00:49 (22:49 UTC)

预报

该预报发布于5小时和49分钟前的17:00 UTC
预报有效从26日的 18点(UTC)到 27日的 24点(UTC)
风速8节,风向
能见度10公里或以上
1500米以下无云,无积雨云

TAF: EDDL 261700Z 2618/2724 36008KT CAVOK

超过4000个机场的气象观测和天气预报(METAR&TAF报告)。

可查询的气象台以黄色和红色小点在地图上表示。

将鼠标移到小点上方,可查看气象台名称。

然后点击查看天气观测和预报。

如需切换地图:点击带黑十字的绿色按钮放大地图;点击带横线的绿色按钮缩小地图;或者点击绿色箭头查看邻近地区的地图。


METAR-TAF: